createdAt,value
2022-10-14T00:02:19.284Z,2.00
2022-10-14T00:04:45.835Z,1.83
2022-10-14T00:07:12.379Z,1.70
2022-10-14T00:09:40.045Z,1.90
2022-10-14T00:12:06.685Z,2.03
2022-10-14T00:14:33.171Z,1.80
2022-10-14T00:16:59.657Z,1.73
2022-10-14T00:19:26.159Z,1.70
2022-10-14T00:21:52.671Z,1.80
2022-10-14T00:24:19.581Z,2.03
2022-10-14T00:26:46.457Z,1.70
2022-10-14T00:29:19.359Z,1.67
2022-10-14T00:31:46.474Z,1.67
2022-10-14T00:34:15.805Z,1.65
2022-10-14T00:36:42.836Z,1.58
2022-10-14T00:39:09.406Z,1.83
2022-10-14T00:41:36.155Z,1.58
2022-10-14T00:44:07.383Z,2.20
2022-10-14T00:46:42.238Z,1.80
2022-10-14T00:49:19.797Z,1.73
2022-10-14T00:51:54.323Z,1.77
2022-10-14T00:54:24.339Z,1.52
2022-10-14T00:56:51.584Z,1.80
2022-10-14T00:59:18.642Z,1.42
2022-10-14T01:01:45.203Z,1.30
2022-10-14T01:04:11.846Z,1.38
2022-10-14T01:07:05.765Z,1.30
2022-10-14T01:09:47.740Z,1.50
2022-10-14T01:12:39.713Z,1.58
2022-10-14T01:15:25.152Z,1.23
2022-10-14T01:17:54.498Z,1.30
2022-10-14T01:20:48.598Z,1.10
2022-10-14T01:23:45.880Z,1.33
2022-10-14T01:26:37.325Z,1.40
2022-10-14T01:29:16.771Z,1.25
2022-10-14T01:31:48.155Z,1.30
2022-10-14T01:34:24.555Z,1.27
2022-10-14T01:37:01.259Z,1.20
2022-10-14T01:39:33.496Z,1.40
2022-10-14T01:42:05.572Z,1.08
2022-10-14T01:44:33.828Z,1.10
2022-10-14T01:47:03.148Z,1.00
2022-10-14T01:49:34.500Z,1.10
2022-10-14T01:52:14.105Z,1.40
2022-10-14T01:54:43.091Z,1.05
2022-10-14T01:57:17.430Z,1.13
2022-10-14T01:59:45.834Z,1.05
2022-10-14T02:02:13.524Z,1.02
2022-10-14T02:04:40.137Z,1.15
2022-10-14T02:07:19.096Z,1.20
2022-10-14T02:10:03.496Z,1.40
2022-10-14T02:12:43.164Z,1.13
2022-10-14T02:15:16.311Z,1.30
2022-10-14T02:17:57.672Z,1.45
2022-10-14T02:20:53.769Z,1.50
2022-10-14T02:23:26.529Z,1.38
2022-10-14T02:25:54.830Z,1.58
2022-10-14T02:28:25.286Z,1.20
2022-10-14T02:31:00.311Z,1.50
2022-10-14T02:33:33.161Z,1.40
2022-10-14T02:36:02.401Z,1.48
2022-10-14T02:38:30.363Z,1.30
2022-10-14T02:41:00.160Z,1.60
2022-10-14T02:43:26.702Z,1.50
2022-10-14T02:45:57.706Z,1.25
2022-10-14T02:48:24.251Z,1.25
2022-10-14T02:50:50.739Z,1.27
2022-10-14T02:53:17.678Z,1.30
2022-10-14T02:55:44.160Z,1.40
2022-10-14T02:58:10.620Z,1.30
2022-10-14T03:00:37.539Z,1.10
2022-10-14T03:03:04.019Z,1.30
2022-10-14T03:05:31.001Z,1.45
2022-10-14T03:07:57.480Z,1.45
2022-10-14T03:10:23.959Z,1.30
2022-10-14T03:12:50.452Z,1.40
2022-10-14T03:15:17.035Z,1.30
2022-10-14T03:17:43.578Z,1.25
2022-10-14T03:20:10.941Z,1.60
2022-10-14T03:22:37.403Z,1.30
2022-10-14T03:25:04.130Z,1.35
2022-10-14T03:27:30.627Z,1.30
2022-10-14T03:29:57.149Z,1.25
2022-10-14T03:32:24.066Z,1.13
2022-10-14T03:34:50.718Z,1.20
2022-10-14T03:37:17.183Z,1.05
2022-10-14T03:39:43.665Z,1.50
2022-10-14T03:42:10.208Z,1.48
2022-10-14T03:44:36.715Z,1.10
2022-10-14T03:47:03.259Z,1.15
2022-10-14T03:49:30.335Z,1.38
2022-10-14T03:51:56.840Z,1.20
2022-10-14T03:54:23.433Z,1.30
2022-10-14T03:56:50.890Z,1.27
2022-10-14T03:59:17.405Z,1.38
2022-10-14T04:01:44.063Z,1.23
2022-10-14T04:04:10.611Z,1.30
2022-10-14T04:06:37.812Z,0.90
2022-10-14T04:09:04.755Z,1.40
2022-10-14T04:11:33.559Z,1.30
2022-10-14T04:14:00.778Z,1.23
2022-10-14T04:16:27.258Z,1.33
2022-10-14T04:18:54.287Z,1.27
2022-10-14T04:21:20.983Z,1.17
2022-10-14T04:23:47.683Z,1.20
2022-10-14T04:26:14.520Z,1.38
2022-10-14T04:28:41.071Z,1.20
2022-10-14T04:31:07.629Z,1.40
2022-10-14T04:33:35.084Z,1.38
2022-10-14T04:36:04.183Z,1.35
2022-10-14T04:38:30.853Z,1.38
2022-10-14T04:40:57.544Z,1.45
2022-10-14T04:43:24.479Z,1.38
2022-10-14T04:45:51.087Z,1.33
2022-10-14T04:48:18.401Z,1.35
2022-10-14T04:50:44.928Z,1.30
2022-10-14T04:53:14.018Z,1.40
2022-10-14T04:55:40.960Z,1.40
2022-10-14T04:58:07.605Z,1.38
2022-10-14T05:00:34.211Z,1.50
2022-10-14T05:03:00.707Z,1.48
2022-10-14T05:05:27.307Z,1.13
2022-10-14T05:07:53.769Z,1.52
2022-10-14T05:10:20.385Z,1.58
2022-10-14T05:12:47.277Z,1.70
2022-10-14T05:15:14.075Z,1.65
2022-10-14T05:17:44.391Z,2.05
2022-10-14T05:20:12.236Z,2.05
2022-10-14T05:22:38.811Z,2.45
2022-10-14T05:25:05.688Z,2.20
2022-10-14T05:27:32.144Z,2.78
2022-10-14T05:29:58.671Z,2.38
2022-10-14T05:32:25.154Z,2.83
2022-10-14T05:34:51.618Z,3.10
2022-10-14T05:37:18.104Z,4.28
2022-10-14T05:39:44.584Z,3.78
2022-10-14T05:42:11.126Z,3.70
2022-10-14T05:44:37.711Z,4.82
2022-10-14T05:47:04.254Z,4.20
2022-10-14T05:49:30.751Z,4.32
2022-10-14T05:51:57.710Z,4.15
2022-10-14T05:54:24.281Z,4.60
2022-10-14T05:56:50.765Z,4.45
2022-10-14T05:59:17.246Z,4.45
2022-10-14T06:01:43.838Z,4.47
2022-10-14T06:04:17.737Z,4.45
2022-10-14T06:06:44.437Z,4.93
2022-10-14T06:09:11.651Z,4.07
2022-10-14T06:11:38.589Z,4.03
2022-10-14T06:14:05.344Z,4.35
2022-10-14T06:16:31.890Z,4.68
2022-10-14T06:18:58.468Z,4.78
2022-10-14T06:21:25.080Z,5.43
2022-10-14T06:23:51.855Z,5.00
2022-10-14T06:26:18.471Z,4.82
2022-10-14T06:28:45.114Z,4.55
2022-10-14T06:31:11.660Z,4.93
2022-10-14T06:33:38.219Z,4.63
2022-10-14T06:36:07.130Z,5.07
2022-10-14T06:38:33.809Z,4.47
2022-10-14T06:41:00.375Z,4.55
2022-10-14T06:43:26.860Z,4.53
2022-10-14T06:45:56.817Z,5.13
2022-10-14T06:48:23.388Z,6.10
2022-10-14T06:50:49.855Z,5.85
2022-10-14T06:53:16.395Z,5.75
2022-10-14T06:55:42.900Z,6.15
2022-10-14T06:58:09.522Z,5.88
2022-10-14T07:00:37.314Z,5.85
2022-10-14T07:03:04.190Z,5.97
2022-10-14T07:05:30.804Z,6.07
2022-10-14T07:07:58.473Z,5.55
2022-10-14T07:10:25.031Z,5.22
2022-10-14T07:12:54.853Z,5.50
2022-10-14T07:15:21.459Z,5.95
2022-10-14T07:17:47.981Z,5.18
2022-10-14T07:20:14.668Z,5.03
2022-10-14T07:22:41.207Z,4.35
2022-10-14T07:25:08.190Z,4.15
2022-10-14T07:27:34.753Z,4.70
2022-10-14T07:30:01.734Z,4.78
2022-10-14T07:32:28.301Z,4.63
2022-10-14T07:34:54.924Z,3.95
2022-10-14T07:37:22.026Z,3.65
2022-10-14T07:39:48.898Z,3.92
2022-10-14T07:42:15.494Z,3.75
2022-10-14T07:44:42.097Z,3.60
2022-10-14T07:47:08.689Z,3.50
2022-10-14T07:49:35.222Z,3.45
2022-10-14T07:52:01.743Z,3.67
2022-10-14T07:54:30.856Z,3.22
2022-10-14T07:56:57.990Z,2.80
2022-10-14T07:59:25.484Z,3.20
2022-10-14T08:01:53.338Z,3.00
2022-10-14T08:04:20.262Z,2.88
2022-10-14T08:06:48.711Z,2.80
2022-10-14T08:09:15.821Z,2.60
2022-10-14T08:11:43.341Z,2.95
2022-10-14T08:14:09.858Z,2.30
2022-10-14T08:16:37.455Z,2.85
2022-10-14T08:19:12.601Z,2.30
2022-10-14T08:21:41.479Z,2.17
2022-10-14T08:24:08.931Z,2.03
2022-10-14T08:26:41.154Z,2.13
2022-10-14T08:29:10.984Z,2.10
2022-10-14T08:31:37.767Z,2.10
2022-10-14T08:34:04.360Z,2.00
2022-10-14T08:36:31.169Z,2.20
2022-10-14T08:38:57.722Z,2.10
2022-10-14T08:41:39.575Z,1.98
2022-10-14T08:44:25.927Z,2.15
2022-10-14T08:46:54.404Z,1.80
2022-10-14T08:49:42.604Z,2.15
2022-10-14T08:52:15.465Z,2.03
2022-10-14T08:54:47.074Z,1.90
2022-10-14T08:57:19.190Z,1.75
2022-10-14T08:59:45.726Z,1.75
2022-10-14T09:02:39.914Z,1.65
2022-10-14T09:05:06.943Z,1.67
2022-10-14T09:07:36.265Z,1.80
2022-10-14T09:10:07.907Z,1.50
2022-10-14T09:12:36.059Z,1.65
2022-10-14T09:15:19.144Z,2.03
2022-10-14T09:17:57.603Z,1.52
2022-10-14T09:20:25.562Z,1.42
2022-10-14T09:23:05.860Z,1.33
2022-10-14T09:25:40.111Z,1.30
2022-10-14T09:28:06.617Z,1.73
2022-10-14T09:30:38.452Z,1.30
2022-10-14T09:33:05.758Z,1.50
2022-10-14T09:35:36.575Z,1.48
2022-10-14T09:38:03.425Z,1.60
2022-10-14T09:40:36.016Z,1.35
2022-10-14T09:43:02.410Z,1.45
2022-10-14T09:45:45.937Z,1.60
2022-10-14T09:48:17.071Z,1.40
2022-10-14T09:50:51.623Z,1.40
2022-10-14T09:53:27.615Z,1.23
2022-10-14T09:55:57.146Z,1.25
2022-10-14T09:58:33.833Z,1.30
2022-10-14T10:01:01.908Z,1.33
2022-10-14T10:03:34.964Z,1.40
2022-10-14T10:06:08.326Z,1.50
2022-10-14T10:08:38.304Z,1.60
2022-10-14T10:11:13.775Z,1.65
2022-10-14T10:13:46.228Z,1.67
2022-10-14T10:16:34.791Z,1.70
2022-10-14T10:19:33.630Z,1.65
2022-10-14T10:22:23.350Z,1.65
2022-10-14T10:25:01.667Z,1.35
2022-10-14T10:27:39.950Z,1.35
2022-10-14T10:30:20.239Z,1.73
2022-10-14T10:33:05.085Z,1.50
2022-10-14T10:35:52.584Z,1.45
2022-10-14T10:38:23.821Z,1.48
2022-10-14T10:41:45.980Z,1.80
2022-10-14T10:44:40.363Z,1.63
2022-10-14T10:47:45.725Z,1.77
2022-10-14T10:50:44.010Z,1.60
2022-10-14T10:53:13.921Z,1.67
2022-10-14T10:55:59.743Z,1.30
2022-10-14T10:58:50.633Z,1.70
2022-10-14T11:01:31.555Z,1.55
2022-10-14T11:04:13.008Z,1.50
2022-10-14T11:07:27.002Z,1.80
2022-10-14T11:10:33.081Z,1.50
2022-10-14T11:13:06.723Z,1.40
2022-10-14T11:15:48.495Z,1.50
2022-10-14T11:18:33.619Z,1.35
2022-10-14T11:21:20.074Z,1.33
2022-10-14T11:24:02.089Z,1.70
2022-10-14T11:26:58.639Z,1.52
2022-10-14T11:29:41.112Z,1.25
2022-10-14T11:32:27.781Z,1.45
2022-10-14T11:35:20.088Z,1.20
2022-10-14T11:38:11.161Z,1.20
2022-10-14T11:40:42.490Z,1.42
2022-10-14T11:43:43.004Z,1.30
2022-10-14T11:46:13.952Z,1.40
2022-10-14T11:49:04.175Z,1.80
2022-10-14T11:51:38.536Z,1.33
2022-10-14T11:54:20.826Z,1.48
2022-10-14T11:57:05.700Z,1.25
2022-10-14T11:59:45.046Z,1.00
2022-10-14T12:02:21.676Z,1.25
2022-10-14T12:05:22.477Z,1.20
2022-10-14T12:08:24.545Z,1.20
2022-10-14T12:10:57.934Z,1.10
2022-10-14T12:13:41.615Z,1.10
2022-10-14T12:16:15.179Z,1.45
2022-10-14T12:18:44.462Z,1.08
2022-10-14T12:21:28.052Z,1.60
2022-10-14T12:24:08.335Z,1.20
2022-10-14T12:26:47.164Z,1.27
2022-10-14T12:29:17.641Z,1.10
2022-10-14T12:32:03.591Z,1.38
2022-10-14T12:34:35.908Z,1.25
2022-10-14T12:37:27.145Z,1.40
2022-10-14T12:40:03.397Z,1.15
2022-10-14T12:42:31.641Z,1.10
2022-10-14T12:45:01.643Z,1.20
2022-10-14T12:47:36.014Z,1.30
2022-10-14T12:50:29.640Z,1.30
2022-10-14T12:53:00.720Z,1.00
2022-10-14T12:55:30.088Z,1.02
2022-10-14T12:58:00.789Z,1.20
2022-10-14T13:00:35.865Z,1.13
2022-10-14T13:03:05.100Z,0.90
2022-10-14T13:05:41.178Z,1.20
2022-10-14T13:08:19.809Z,1.00
2022-10-14T13:10:54.967Z,1.38
2022-10-14T13:13:57.855Z,1.17
2022-10-14T13:16:24.315Z,1.25
2022-10-14T13:18:57.895Z,1.10
2022-10-14T13:21:27.440Z,1.23
2022-10-14T13:23:55.234Z,1.10
2022-10-14T13:26:24.519Z,1.02
2022-10-14T13:29:05.871Z,1.23
2022-10-14T13:31:55.827Z,1.20
2022-10-14T13:34:22.401Z,1.55
2022-10-14T13:37:16.262Z,1.00
2022-10-14T13:39:43.130Z,1.08
2022-10-14T13:42:17.502Z,0.82
2022-10-14T13:44:44.651Z,0.98
2022-10-14T13:47:14.712Z,1.25
2022-10-14T13:49:43.755Z,1.25
2022-10-14T13:52:21.482Z,1.10
2022-10-14T13:54:48.357Z,1.17
2022-10-14T13:57:47.742Z,1.10
2022-10-14T14:00:42.855Z,1.13
2022-10-14T14:03:22.450Z,1.13
2022-10-14T14:05:50.679Z,1.05
2022-10-14T14:08:40.935Z,1.10
2022-10-14T14:11:18.040Z,1.63
2022-10-14T14:14:12.871Z,0.90
2022-10-14T14:16:49.305Z,0.80
2022-10-14T14:19:21.037Z,1.00
2022-10-14T14:21:48.035Z,1.05
2022-10-14T14:24:34.332Z,1.00
2022-10-14T14:29:32.178Z,0.98
2022-10-14T14:32:08.744Z,1.00
2022-10-14T14:34:37.886Z,0.70
2022-10-14T14:37:32.037Z,1.10
2022-10-14T14:40:23.414Z,0.98
2022-10-14T14:42:56.041Z,0.88
2022-10-14T14:45:29.264Z,1.10
2022-10-14T14:47:59.363Z,0.90
2022-10-14T14:50:43.868Z,0.90
2022-10-14T14:53:33.088Z,0.88
2022-10-14T14:56:22.410Z,0.70
2022-10-14T14:58:52.965Z,0.80
2022-10-14T15:01:22.462Z,0.90
2022-10-14T15:04:12.651Z,0.85
2022-10-14T15:06:38.157Z,1.00
2022-10-14T15:09:12.615Z,1.00
2022-10-14T15:11:57.790Z,1.00
2022-10-14T15:14:46.350Z,0.80
2022-10-14T15:17:33.410Z,0.90
2022-10-14T15:20:21.161Z,0.93
2022-10-14T15:22:49.110Z,0.90
2022-10-14T15:25:22.545Z,1.02
2022-10-14T15:27:54.843Z,0.85
2022-10-14T15:30:37.994Z,0.80
2022-10-14T15:33:13.811Z,0.90
2022-10-14T15:38:16.850Z,0.65
2022-10-14T15:40:44.796Z,0.70
2022-10-14T15:43:22.543Z,0.70
2022-10-14T15:46:13.210Z,0.80
2022-10-14T15:48:45.958Z,0.80
2022-10-14T15:51:16.934Z,0.75
2022-10-14T15:53:43.546Z,0.80
2022-10-14T15:56:10.466Z,0.80
2022-10-14T15:58:37.036Z,0.70
2022-10-14T16:01:06.480Z,0.80
2022-10-14T16:03:37.179Z,0.90
2022-10-14T16:06:07.221Z,0.82
2022-10-14T16:08:34.068Z,0.80
2022-10-14T16:11:01.671Z,0.60
2022-10-14T16:13:28.140Z,0.90
2022-10-14T16:16:01.372Z,0.70
2022-10-14T16:18:29.193Z,0.80
2022-10-14T16:20:55.679Z,0.70
2022-10-14T16:23:28.297Z,1.08
2022-10-14T16:26:00.175Z,1.38
2022-10-14T16:28:26.749Z,1.20
2022-10-14T16:30:53.346Z,2.45
2022-10-14T16:33:24.432Z,2.80
2022-10-14T16:35:56.351Z,1.52
2022-10-14T16:38:24.191Z,2.40
2022-10-14T16:40:58.988Z,1.75
2022-10-14T16:43:26.437Z,2.95
2022-10-14T16:45:53.273Z,3.05
2022-10-14T16:48:20.440Z,2.90
2022-10-14T16:50:51.189Z,3.03
2022-10-14T16:53:36.929Z,3.80
2022-10-14T16:56:04.396Z,4.28
2022-10-14T16:58:30.861Z,3.67
2022-10-14T17:00:57.343Z,4.53
2022-10-14T17:03:23.860Z,4.20
2022-10-14T17:05:56.804Z,3.40
2022-10-14T17:08:23.341Z,4.05
2022-10-14T17:10:49.868Z,3.60
2022-10-14T17:13:17.394Z,3.63
2022-10-14T17:15:43.880Z,3.65
2022-10-14T17:18:12.468Z,3.90
2022-10-14T17:20:39.121Z,3.60
2022-10-14T17:23:10.190Z,3.67
2022-10-14T17:25:37.194Z,3.92
2022-10-14T17:28:03.729Z,4.20
2022-10-14T17:30:30.238Z,3.53
2022-10-14T17:32:56.757Z,4.20
2022-10-14T17:35:23.594Z,3.90
2022-10-14T17:37:50.094Z,3.60
2022-10-14T17:40:16.654Z,3.67
2022-10-14T17:42:43.225Z,3.35
2022-10-14T17:45:10.659Z,4.07
2022-10-14T17:47:37.100Z,3.20
2022-10-14T17:50:03.826Z,3.60
2022-10-14T17:52:30.353Z,3.05
2022-10-14T17:54:58.969Z,3.35
2022-10-14T17:57:27.843Z,3.15
2022-10-14T17:59:54.422Z,3.28
2022-10-14T18:02:21.580Z,3.47
2022-10-14T18:04:48.172Z,2.63
2022-10-14T18:07:15.644Z,3.17
2022-10-14T18:09:43.578Z,3.13
2022-10-14T18:12:10.484Z,2.80
2022-10-14T18:14:38.600Z,3.10
2022-10-14T18:17:05.287Z,2.60
2022-10-14T18:19:32.101Z,3.05
2022-10-14T18:21:58.677Z,3.00
2022-10-14T18:24:25.246Z,2.60
2022-10-14T18:26:53.240Z,2.80
2022-10-14T18:29:20.157Z,2.83
2022-10-14T18:31:49.267Z,3.00
2022-10-14T18:34:17.542Z,2.47
2022-10-14T18:36:44.056Z,2.78
2022-10-14T18:39:12.223Z,2.58
2022-10-14T18:41:39.047Z,2.10
2022-10-14T18:44:06.236Z,2.65
2022-10-14T18:46:35.534Z,2.47
2022-10-14T18:49:03.689Z,2.38
2022-10-14T18:51:34.880Z,2.60
2022-10-14T18:54:12.326Z,2.40
2022-10-14T18:56:38.952Z,2.55
2022-10-14T18:59:09.865Z,2.10
2022-10-14T19:01:37.594Z,2.55
2022-10-14T19:04:06.654Z,2.20
2022-10-14T19:06:34.268Z,2.00
2022-10-14T19:09:04.127Z,2.10
2022-10-14T19:11:32.463Z,2.40
2022-10-14T19:14:00.304Z,2.25
2022-10-14T19:16:29.518Z,2.33
2022-10-14T19:19:00.866Z,2.10
2022-10-14T19:21:30.196Z,2.08
2022-10-14T19:23:58.565Z,2.30
2022-10-14T19:26:27.893Z,2.40
2022-10-14T19:28:56.289Z,2.10
2022-10-14T19:31:25.845Z,1.92
2022-10-14T19:33:53.521Z,2.08
2022-10-14T19:36:21.498Z,2.30
2022-10-14T19:38:52.210Z,2.30
2022-10-14T19:41:19.255Z,2.22
2022-10-14T19:43:45.870Z,1.85
2022-10-14T19:46:13.684Z,2.20
2022-10-14T19:48:40.312Z,2.08
2022-10-14T19:51:10.686Z,2.05
2022-10-14T19:53:38.603Z,1.95
2022-10-14T19:56:07.828Z,1.77
2022-10-14T19:58:34.699Z,1.85
2022-10-14T20:01:16.276Z,1.95
2022-10-14T20:03:42.955Z,1.92
2022-10-14T20:06:11.241Z,2.08
2022-10-14T20:08:38.160Z,2.30
2022-10-14T20:11:10.744Z,1.58
2022-10-14T20:13:38.106Z,1.98
2022-10-14T20:16:06.969Z,2.10
2022-10-14T20:18:34.036Z,1.80
2022-10-14T20:21:02.419Z,2.10
2022-10-14T20:23:29.125Z,2.05
2022-10-14T20:26:03.280Z,2.40
2022-10-14T20:28:29.917Z,1.58
2022-10-14T20:30:57.447Z,2.38
2022-10-14T20:33:24.269Z,2.08
2022-10-14T20:36:15.483Z,1.75
2022-10-14T20:38:43.032Z,1.90
2022-10-14T20:41:18.870Z,2.20
2022-10-14T20:46:14.755Z,2.03
2022-10-14T20:48:41.698Z,1.92
2022-10-14T20:51:10.454Z,2.00
2022-10-14T20:53:37.008Z,2.20
2022-10-14T20:56:06.257Z,2.30
2022-10-14T20:58:32.851Z,2.30
2022-10-14T21:01:09.606Z,2.20
2022-10-14T21:03:36.445Z,2.13
2022-10-14T21:06:08.187Z,1.90
2022-10-14T21:08:34.788Z,2.13
2022-10-14T21:11:03.589Z,1.90
2022-10-14T21:13:30.858Z,1.90
2022-10-14T21:15:57.720Z,1.95
2022-10-14T21:18:24.288Z,2.10
2022-10-14T21:23:22.537Z,1.98
2022-10-14T21:25:56.826Z,2.13
2022-10-14T21:28:23.780Z,2.17
2022-10-14T21:30:50.297Z,2.00
2022-10-14T21:33:16.896Z,2.03
2022-10-14T21:35:43.397Z,1.92
2022-10-14T21:38:09.908Z,2.50
2022-10-14T21:40:36.446Z,2.17
2022-10-14T21:43:02.974Z,1.88
2022-10-14T21:45:29.497Z,2.05
2022-10-14T21:47:56.138Z,1.73
2022-10-14T21:50:22.699Z,1.98
2022-10-14T21:52:49.196Z,1.98
2022-10-14T21:55:15.661Z,1.98
2022-10-14T21:57:42.153Z,1.92
2022-10-14T22:00:10.681Z,1.80
2022-10-14T22:02:37.161Z,1.60
2022-10-14T22:05:04.080Z,1.70
2022-10-14T22:07:31.365Z,1.70
2022-10-14T22:09:57.846Z,1.73
2022-10-14T22:12:24.519Z,2.00
2022-10-14T22:14:51.152Z,1.95
2022-10-14T22:17:17.725Z,1.65
2022-10-14T22:19:44.792Z,2.00
2022-10-14T22:22:11.301Z,1.83
2022-10-14T22:24:37.785Z,1.88
2022-10-14T22:27:04.734Z,1.67
2022-10-14T22:29:31.918Z,1.70
2022-10-14T22:31:58.379Z,1.80
2022-10-14T22:34:25.024Z,1.90
2022-10-14T22:36:51.596Z,1.75
2022-10-14T22:39:18.519Z,1.88
2022-10-14T22:41:45.027Z,2.08
2022-10-14T22:44:11.631Z,2.05
2022-10-14T22:46:39.327Z,1.92
2022-10-14T22:49:06.016Z,1.83
2022-10-14T22:51:36.018Z,1.55
2022-10-14T22:54:02.853Z,1.80
2022-10-14T22:56:31.133Z,1.70
2022-10-14T22:59:08.994Z,1.83
2022-10-14T23:01:36.095Z,1.67
2022-10-14T23:04:03.382Z,1.85
2022-10-14T23:06:31.238Z,2.00
2022-10-14T23:08:58.188Z,1.75
2022-10-14T23:11:25.349Z,1.70
2022-10-14T23:13:52.284Z,1.95
2022-10-14T23:16:21.521Z,1.95
2022-10-14T23:18:48.904Z,1.80
2022-10-14T23:21:24.417Z,1.75
2022-10-14T23:23:52.364Z,1.88
2022-10-14T23:26:22.190Z,2.10
2022-10-14T23:28:50.699Z,1.88
2022-10-14T23:31:20.285Z,1.95
2022-10-14T23:33:47.531Z,1.85
2022-10-14T23:36:14.138Z,1.65
2022-10-14T23:38:40.960Z,1.55
2022-10-14T23:41:09.417Z,1.90
2022-10-14T23:43:35.991Z,1.75
2022-10-14T23:46:04.564Z,1.60
2022-10-14T23:48:31.479Z,1.73
2022-10-14T23:50:58.040Z,1.45
2022-10-14T23:53:26.497Z,2.10
2022-10-14T23:55:53.937Z,1.75
2022-10-14T23:58:20.556Z,1.60
